sensor_id;sensor_type;location;lat;lon;timestamp;P1;durP1;ratioP1;P2;durP2;ratioP2
48203;SDS011;33994;50.998;5.864;2022-08-03T00:02:39;7.45;;;2.17;;
48203;SDS011;33994;50.998;5.864;2022-08-03T00:05:43;5.25;;;2.60;;
48203;SDS011;33994;50.998;5.864;2022-08-03T00:08:47;5.32;;;2.08;;
48203;SDS011;33994;50.998;5.864;2022-08-03T00:11:51;2.40;;;1.80;;
48203;SDS011;33994;50.998;5.864;2022-08-03T00:14:56;6.53;;;1.95;;
48203;SDS011;33994;50.998;5.864;2022-08-03T00:18:00;9.07;;;2.30;;
48203;SDS011;33994;50.998;5.864;2022-08-03T00:21:04;7.05;;;2.42;;
48203;SDS011;33994;50.998;5.864;2022-08-03T00:24:09;4.20;;;1.90;;
48203;SDS011;33994;50.998;5.864;2022-08-03T00:27:13;4.75;;;2.20;;
48203;SDS011;33994;50.998;5.864;2022-08-03T00:30:17;5.22;;;2.30;;
48203;SDS011;33994;50.998;5.864;2022-08-03T00:33:22;3.53;;;1.92;;
48203;SDS011;33994;50.998;5.864;2022-08-03T00:36:27;3.50;;;2.10;;
48203;SDS011;33994;50.998;5.864;2022-08-03T00:39:31;4.13;;;2.00;;
48203;SDS011;33994;50.998;5.864;2022-08-03T00:42:45;6.55;;;2.45;;
48203;SDS011;33994;50.998;5.864;2022-08-03T00:45:50;5.03;;;2.10;;
48203;SDS011;33994;50.998;5.864;2022-08-03T00:48:56;5.03;;;2.05;;
48203;SDS011;33994;50.998;5.864;2022-08-03T00:52:00;9.82;;;2.35;;
48203;SDS011;33994;50.998;5.864;2022-08-03T00:55:05;4.72;;;2.28;;
48203;SDS011;33994;50.998;5.864;2022-08-03T00:58:09;5.68;;;2.00;;
48203;SDS011;33994;50.998;5.864;2022-08-03T01:01:14;4.65;;;2.30;;
48203;SDS011;33994;50.998;5.864;2022-08-03T01:04:18;3.45;;;2.13;;
48203;SDS011;33994;50.998;5.864;2022-08-03T01:07:45;6.60;;;2.17;;
48203;SDS011;33994;50.998;5.864;2022-08-03T01:11:14;7.65;;;3.08;;
48203;SDS011;33994;50.998;5.864;2022-08-03T01:14:28;6.32;;;2.47;;
48203;SDS011;33994;50.998;5.864;2022-08-03T01:21:03;5.78;;;2.40;;
48203;SDS011;33994;50.998;5.864;2022-08-03T01:24:24;4.30;;;2.13;;
48203;SDS011;33994;50.998;5.864;2022-08-03T01:31:36;5.82;;;1.95;;
48203;SDS011;33994;50.998;5.864;2022-08-03T01:34:48;7.25;;;2.22;;
48203;SDS011;33994;50.998;5.864;2022-08-03T01:38:02;3.85;;;2.42;;
48203;SDS011;33994;50.998;5.864;2022-08-03T01:41:13;4.70;;;2.50;;
48203;SDS011;33994;50.998;5.864;2022-08-03T01:44:21;6.72;;;2.30;;
48203;SDS011;33994;50.998;5.864;2022-08-03T01:47:27;5.43;;;2.05;;
48203;SDS011;33994;50.998;5.864;2022-08-03T01:50:33;6.47;;;2.22;;
48203;SDS011;33994;50.998;5.864;2022-08-03T01:53:39;2.97;;;1.92;;
48203;SDS011;33994;50.998;5.864;2022-08-03T01:56:45;9.73;;;2.80;;
48203;SDS011;33994;50.998;5.864;2022-08-03T01:59:52;8.43;;;2.38;;
48203;SDS011;33994;50.998;5.864;2022-08-03T02:02:59;4.07;;;2.30;;
48203;SDS011;33994;50.998;5.864;2022-08-03T02:06:05;8.55;;;2.65;;
48203;SDS011;33994;50.998;5.864;2022-08-03T02:09:12;10.23;;;2.60;;
48203;SDS011;33994;50.998;5.864;2022-08-03T02:12:18;5.65;;;2.10;;
48203;SDS011;33994;50.998;5.864;2022-08-03T02:15:25;5.45;;;2.40;;
48203;SDS011;33994;50.998;5.864;2022-08-03T02:18:31;5.13;;;2.30;;
48203;SDS011;33994;50.998;5.864;2022-08-03T02:21:36;5.63;;;2.47;;
48203;SDS011;33994;50.998;5.864;2022-08-03T02:24:41;6.18;;;2.17;;
48203;SDS011;33994;50.998;5.864;2022-08-03T02:27:48;5.57;;;2.42;;
48203;SDS011;33994;50.998;5.864;2022-08-03T02:30:55;6.15;;;2.45;;
48203;SDS011;33994;50.998;5.864;2022-08-03T02:34:03;6.03;;;2.15;;
48203;SDS011;33994;50.998;5.864;2022-08-03T02:37:11;6.10;;;2.78;;
48203;SDS011;33994;50.998;5.864;2022-08-03T02:40:18;7.15;;;2.53;;
48203;SDS011;33994;50.998;5.864;2022-08-03T02:43:23;8.50;;;2.65;;
48203;SDS011;33994;50.998;5.864;2022-08-03T02:46:33;6.40;;;2.50;;
48203;SDS011;33994;50.998;5.864;2022-08-03T02:49:40;4.72;;;2.25;;
48203;SDS011;33994;50.998;5.864;2022-08-03T02:52:45;6.50;;;2.45;;
48203;SDS011;33994;50.998;5.864;2022-08-03T02:55:51;6.93;;;2.53;;
48203;SDS011;33994;50.998;5.864;2022-08-03T02:58:57;6.53;;;2.20;;
48203;SDS011;33994;50.998;5.864;2022-08-03T03:02:02;6.70;;;2.72;;
48203;SDS011;33994;50.998;5.864;2022-08-03T03:05:08;5.32;;;2.25;;
48203;SDS011;33994;50.998;5.864;2022-08-03T03:08:14;9.23;;;2.67;;
48203;SDS011;33994;50.998;5.864;2022-08-03T03:11:21;5.00;;;2.47;;
48203;SDS011;33994;50.998;5.864;2022-08-03T03:14:28;5.93;;;2.78;;
48203;SDS011;33994;50.998;5.864;2022-08-03T03:17:33;4.85;;;2.53;;
48203;SDS011;33994;50.998;5.864;2022-08-03T03:20:38;5.30;;;3.15;;
48203;SDS011;33994;50.998;5.864;2022-08-03T03:23:42;6.85;;;2.58;;
48203;SDS011;33994;50.998;5.864;2022-08-03T03:26:47;6.85;;;2.55;;
48203;SDS011;33994;50.998;5.864;2022-08-03T03:29:51;8.68;;;2.83;;
48203;SDS011;33994;50.998;5.864;2022-08-03T03:32:56;9.85;;;3.53;;
48203;SDS011;33994;50.998;5.864;2022-08-03T03:36:01;7.30;;;3.50;;
48203;SDS011;33994;50.998;5.864;2022-08-03T03:39:08;9.13;;;2.93;;
48203;SDS011;33994;50.998;5.864;2022-08-03T03:42:12;8.65;;;3.15;;
48203;SDS011;33994;50.998;5.864;2022-08-03T03:45:17;9.23;;;2.65;;
48203;SDS011;33994;50.998;5.864;2022-08-03T03:48:22;10.07;;;2.83;;
48203;SDS011;33994;50.998;5.864;2022-08-03T03:51:27;13.10;;;2.88;;
48203;SDS011;33994;50.998;5.864;2022-08-03T03:54:38;7.78;;;3.05;;
48203;SDS011;33994;50.998;5.864;2022-08-03T03:57:44;7.82;;;3.33;;
48203;SDS011;33994;50.998;5.864;2022-08-03T04:00:49;6.60;;;2.90;;
48203;SDS011;33994;50.998;5.864;2022-08-03T04:03:55;9.30;;;3.15;;
48203;SDS011;33994;50.998;5.864;2022-08-03T04:06:59;14.35;;;3.45;;
48203;SDS011;33994;50.998;5.864;2022-08-03T04:10:22;7.88;;;3.05;;
48203;SDS011;33994;50.998;5.864;2022-08-03T04:13:52;9.15;;;3.47;;
48203;SDS011;33994;50.998;5.864;2022-08-03T04:17:06;5.75;;;2.70;;
48203;SDS011;33994;50.998;5.864;2022-08-03T04:20:13;6.07;;;2.90;;
48203;SDS011;33994;50.998;5.864;2022-08-03T04:23:20;12.23;;;3.95;;
48203;SDS011;33994;50.998;5.864;2022-08-03T04:26:29;7.72;;;2.90;;
48203;SDS011;33994;50.998;5.864;2022-08-03T04:29:37;9.60;;;3.08;;
48203;SDS011;33994;50.998;5.864;2022-08-03T04:32:44;11.93;;;2.85;;
48203;SDS011;33994;50.998;5.864;2022-08-03T04:35:53;10.68;;;2.95;;
48203;SDS011;33994;50.998;5.864;2022-08-03T04:39:07;6.88;;;3.35;;
48203;SDS011;33994;50.998;5.864;2022-08-03T04:42:17;7.10;;;3.08;;
48203;SDS011;33994;50.998;5.864;2022-08-03T04:45:29;6.28;;;3.10;;
48203;SDS011;33994;50.998;5.864;2022-08-03T04:48:35;4.90;;;2.80;;
48203;SDS011;33994;50.998;5.864;2022-08-03T04:51:39;6.68;;;3.17;;
48203;SDS011;33994;50.998;5.864;2022-08-03T04:54:44;7.85;;;3.17;;
48203;SDS011;33994;50.998;5.864;2022-08-03T04:57:50;6.13;;;2.78;;
48203;SDS011;33994;50.998;5.864;2022-08-03T05:00:54;7.22;;;2.83;;
48203;SDS011;33994;50.998;5.864;2022-08-03T05:03:58;6.20;;;2.60;;
48203;SDS011;33994;50.998;5.864;2022-08-03T05:07:02;6.22;;;2.90;;
48203;SDS011;33994;50.998;5.864;2022-08-03T05:10:08;8.77;;;3.42;;
48203;SDS011;33994;50.998;5.864;2022-08-03T05:13:13;8.50;;;3.17;;
48203;SDS011;33994;50.998;5.864;2022-08-03T05:16:17;7.28;;;2.90;;
48203;SDS011;33994;50.998;5.864;2022-08-03T05:19:22;4.38;;;2.75;;
48203;SDS011;33994;50.998;5.864;2022-08-03T05:22:27;7.40;;;2.63;;
48203;SDS011;33994;50.998;5.864;2022-08-03T05:25:31;8.13;;;3.33;;
48203;SDS011;33994;50.998;5.864;2022-08-03T05:28:35;9.27;;;3.25;;
48203;SDS011;33994;50.998;5.864;2022-08-03T05:31:40;6.57;;;2.45;;
48203;SDS011;33994;50.998;5.864;2022-08-03T05:34:44;4.70;;;2.28;;
48203;SDS011;33994;50.998;5.864;2022-08-03T05:37:49;6.07;;;2.20;;
48203;SDS011;33994;50.998;5.864;2022-08-03T05:40:53;6.53;;;2.90;;
48203;SDS011;33994;50.998;5.864;2022-08-03T05:43:58;7.15;;;2.42;;
48203;SDS011;33994;50.998;5.864;2022-08-03T05:47:04;9.73;;;3.03;;
48203;SDS011;33994;50.998;5.864;2022-08-03T05:50:09;3.65;;;2.13;;
48203;SDS011;33994;50.998;5.864;2022-08-03T05:53:16;6.63;;;2.13;;
48203;SDS011;33994;50.998;5.864;2022-08-03T05:56:22;6.82;;;2.60;;
48203;SDS011;33994;50.998;5.864;2022-08-03T05:59:27;7.32;;;2.17;;
48203;SDS011;33994;50.998;5.864;2022-08-03T06:02:31;5.57;;;2.42;;
48203;SDS011;33994;50.998;5.864;2022-08-03T06:05:35;5.38;;;2.17;;
48203;SDS011;33994;50.998;5.864;2022-08-03T06:08:41;7.68;;;2.53;;
48203;SDS011;33994;50.998;5.864;2022-08-03T06:11:46;3.60;;;1.90;;
48203;SDS011;33994;50.998;5.864;2022-08-03T06:14:50;7.80;;;2.35;;
48203;SDS011;33994;50.998;5.864;2022-08-03T06:17:55;5.57;;;2.10;;
48203;SDS011;33994;50.998;5.864;2022-08-03T06:20:59;5.88;;;1.80;;
48203;SDS011;33994;50.998;5.864;2022-08-03T06:24:03;4.10;;;2.00;;
48203;SDS011;33994;50.998;5.864;2022-08-03T06:27:08;9.13;;;1.98;;
48203;SDS011;33994;50.998;5.864;2022-08-03T06:30:14;5.20;;;1.90;;
48203;SDS011;33994;50.998;5.864;2022-08-03T06:33:19;8.02;;;1.80;;
48203;SDS011;33994;50.998;5.864;2022-08-03T06:36:23;5.90;;;1.88;;
48203;SDS011;33994;50.998;5.864;2022-08-03T06:39:33;6.72;;;2.55;;
48203;SDS011;33994;50.998;5.864;2022-08-03T06:42:37;5.65;;;1.70;;
48203;SDS011;33994;50.998;5.864;2022-08-03T06:45:42;6.82;;;1.83;;
48203;SDS011;33994;50.998;5.864;2022-08-03T06:48:47;7.03;;;1.85;;
48203;SDS011;33994;50.998;5.864;2022-08-03T06:51:51;3.90;;;1.88;;
48203;SDS011;33994;50.998;5.864;2022-08-03T06:54:56;3.92;;;2.03;;
48203;SDS011;33994;50.998;5.864;2022-08-03T06:58:01;13.75;;;2.50;;
48203;SDS011;33994;50.998;5.864;2022-08-03T07:01:05;7.15;;;2.00;;
48203;SDS011;33994;50.998;5.864;2022-08-03T07:04:10;7.68;;;1.83;;
48203;SDS011;33994;50.998;5.864;2022-08-03T07:07:14;8.10;;;1.95;;
48203;SDS011;33994;50.998;5.864;2022-08-03T07:10:19;8.45;;;1.52;;
48203;SDS011;33994;50.998;5.864;2022-08-03T07:13:23;6.40;;;1.90;;
48203;SDS011;33994;50.998;5.864;2022-08-03T07:16:28;5.03;;;1.42;;
48203;SDS011;33994;50.998;5.864;2022-08-03T07:19:32;3.88;;;1.60;;
48203;SDS011;33994;50.998;5.864;2022-08-03T07:22:37;7.03;;;1.80;;
48203;SDS011;33994;50.998;5.864;2022-08-03T07:25:41;2.38;;;1.50;;
48203;SDS011;33994;50.998;5.864;2022-08-03T07:28:45;2.85;;;1.15;;
48203;SDS011;33994;50.998;5.864;2022-08-03T07:31:50;5.22;;;2.38;;
48203;SDS011;33994;50.998;5.864;2022-08-03T07:34:54;7.07;;;1.92;;
48203;SDS011;33994;50.998;5.864;2022-08-03T07:37:59;5.40;;;1.52;;
48203;SDS011;33994;50.998;5.864;2022-08-03T07:41:03;3.53;;;1.52;;
48203;SDS011;33994;50.998;5.864;2022-08-03T07:44:08;5.28;;;1.40;;
48203;SDS011;33994;50.998;5.864;2022-08-03T07:47:16;7.50;;;1.38;;
48203;SDS011;33994;50.998;5.864;2022-08-03T07:50:28;4.93;;;1.50;;
48203;SDS011;33994;50.998;5.864;2022-08-03T07:53:32;3.28;;;1.60;;
48203;SDS011;33994;50.998;5.864;2022-08-03T07:56:37;4.82;;;1.75;;
48203;SDS011;33994;50.998;5.864;2022-08-03T07:59:41;5.32;;;1.20;;
48203;SDS011;33994;50.998;5.864;2022-08-03T08:02:45;4.88;;;1.65;;
48203;SDS011;33994;50.998;5.864;2022-08-03T08:05:50;8.82;;;2.13;;
48203;SDS011;33994;50.998;5.864;2022-08-03T08:08:55;6.90;;;1.50;;
48203;SDS011;33994;50.998;5.864;2022-08-03T08:12:03;8.23;;;1.65;;
48203;SDS011;33994;50.998;5.864;2022-08-03T08:15:09;6.88;;;1.67;;
48203;SDS011;33994;50.998;5.864;2022-08-03T08:18:14;5.68;;;1.80;;
48203;SDS011;33994;50.998;5.864;2022-08-03T08:21:18;9.73;;;2.08;;
48203;SDS011;33994;50.998;5.864;2022-08-03T08:24:23;8.70;;;1.90;;
48203;SDS011;33994;50.998;5.864;2022-08-03T08:27:27;5.75;;;1.48;;
48203;SDS011;33994;50.998;5.864;2022-08-03T08:30:32;2.75;;;1.58;;
48203;SDS011;33994;50.998;5.864;2022-08-03T08:33:37;3.30;;;1.50;;
48203;SDS011;33994;50.998;5.864;2022-08-03T08:36:41;14.40;;;2.10;;
48203;SDS011;33994;50.998;5.864;2022-08-03T08:39:45;5.82;;;1.95;;
48203;SDS011;33994;50.998;5.864;2022-08-03T08:42:49;11.13;;;2.17;;
48203;SDS011;33994;50.998;5.864;2022-08-03T08:45:54;9.88;;;1.83;;
48203;SDS011;33994;50.998;5.864;2022-08-03T08:49:01;6.30;;;1.58;;
48203;SDS011;33994;50.998;5.864;2022-08-03T08:52:09;6.38;;;2.20;;
48203;SDS011;33994;50.998;5.864;2022-08-03T08:55:19;6.75;;;1.70;;
48203;SDS011;33994;50.998;5.864;2022-08-03T08:58:25;5.85;;;1.65;;
48203;SDS011;33994;50.998;5.864;2022-08-03T09:01:33;4.90;;;1.48;;
48203;SDS011;33994;50.998;5.864;2022-08-03T09:04:38;5.60;;;1.60;;
48203;SDS011;33994;50.998;5.864;2022-08-03T09:07:43;9.50;;;1.52;;
48203;SDS011;33994;50.998;5.864;2022-08-03T09:10:48;5.75;;;1.50;;
48203;SDS011;33994;50.998;5.864;2022-08-03T09:13:52;6.40;;;2.13;;
48203;SDS011;33994;50.998;5.864;2022-08-03T09:16:57;6.18;;;1.75;;
48203;SDS011;33994;50.998;5.864;2022-08-03T09:20:05;5.05;;;1.15;;
48203;SDS011;33994;50.998;5.864;2022-08-03T09:23:10;5.53;;;1.20;;
48203;SDS011;33994;50.998;5.864;2022-08-03T09:26:19;2.38;;;1.20;;
48203;SDS011;33994;50.998;5.864;2022-08-03T09:29:30;2.95;;;1.70;;
48203;SDS011;33994;50.998;5.864;2022-08-03T09:32:36;5.82;;;1.80;;
48203;SDS011;33994;50.998;5.864;2022-08-03T09:35:41;6.57;;;2.05;;
48203;SDS011;33994;50.998;5.864;2022-08-03T09:38:59;3.45;;;1.20;;
48203;SDS011;33994;50.998;5.864;2022-08-03T09:42:15;4.88;;;1.83;;
48203;SDS011;33994;50.998;5.864;2022-08-03T09:45:27;3.60;;;1.45;;
48203;SDS011;33994;50.998;5.864;2022-08-03T09:48:31;4.45;;;1.27;;
48203;SDS011;33994;50.998;5.864;2022-08-03T09:51:36;4.93;;;1.35;;
48203;SDS011;33994;50.998;5.864;2022-08-03T09:54:41;4.78;;;1.20;;
48203;SDS011;33994;50.998;5.864;2022-08-03T09:57:46;3.72;;;1.42;;
48203;SDS011;33994;50.998;5.864;2022-08-03T10:00:54;4.20;;;1.20;;
48203;SDS011;33994;50.998;5.864;2022-08-03T10:03:59;2.60;;;1.40;;
48203;SDS011;33994;50.998;5.864;2022-08-03T10:07:05;3.65;;;1.25;;
48203;SDS011;33994;50.998;5.864;2022-08-03T10:10:10;5.43;;;1.30;;
48203;SDS011;33994;50.998;5.864;2022-08-03T10:13:16;5.25;;;1.10;;
48203;SDS011;33994;50.998;5.864;2022-08-03T10:16:21;6.07;;;1.30;;
48203;SDS011;33994;50.998;5.864;2022-08-03T10:19:25;5.25;;;1.20;;
48203;SDS011;33994;50.998;5.864;2022-08-03T10:22:31;4.30;;;1.20;;
48203;SDS011;33994;50.998;5.864;2022-08-03T10:25:37;4.13;;;1.20;;
48203;SDS011;33994;50.998;5.864;2022-08-03T10:28:48;1.95;;;1.00;;
48203;SDS011;33994;50.998;5.864;2022-08-03T10:31:57;1.52;;;0.90;;
48203;SDS011;33994;50.998;5.864;2022-08-03T10:38:11;2.35;;;1.08;;
48203;SDS011;33994;50.998;5.864;2022-08-03T10:41:23;2.55;;;0.82;;
48203;SDS011;33994;50.998;5.864;2022-08-03T10:44:31;4.97;;;1.20;;
48203;SDS011;33994;50.998;5.864;2022-08-03T10:47:40;2.13;;;0.90;;
48203;SDS011;33994;50.998;5.864;2022-08-03T10:50:45;3.53;;;1.05;;
48203;SDS011;33994;50.998;5.864;2022-08-03T10:53:52;5.15;;;0.82;;
48203;SDS011;33994;50.998;5.864;2022-08-03T10:56:56;1.92;;;0.43;;
48203;SDS011;33994;50.998;5.864;2022-08-03T11:00:22;7.32;;;1.10;;
48203;SDS011;33994;50.998;5.864;2022-08-03T11:03:28;2.05;;;0.73;;
48203;SDS011;33994;50.998;5.864;2022-08-03T11:06:31;2.25;;;0.70;;
48203;SDS011;33994;50.998;5.864;2022-08-03T11:09:43;3.03;;;0.68;;
48203;SDS011;33994;50.998;5.864;2022-08-03T11:12:49;2.10;;;0.75;;
48203;SDS011;33994;50.998;5.864;2022-08-03T11:15:55;1.85;;;0.85;;
48203;SDS011;33994;50.998;5.864;2022-08-03T11:19:05;4.05;;;0.70;;
48203;SDS011;33994;50.998;5.864;2022-08-03T11:22:12;3.78;;;0.70;;
48203;SDS011;33994;50.998;5.864;2022-08-03T11:25:17;3.75;;;0.50;;
48203;SDS011;33994;50.998;5.864;2022-08-03T11:28:25;2.35;;;0.80;;
48203;SDS011;33994;50.998;5.864;2022-08-03T11:34:35;3.55;;;1.02;;
48203;SDS011;33994;50.998;5.864;2022-08-03T11:38:17;2.25;;;0.70;;
48203;SDS011;33994;50.998;5.864;2022-08-03T11:41:32;3.90;;;0.95;;
48203;SDS011;33994;50.998;5.864;2022-08-03T11:44:40;2.88;;;0.55;;
48203;SDS011;33994;50.998;5.864;2022-08-03T11:47:45;7.40;;;0.70;;
48203;SDS011;33994;50.998;5.864;2022-08-03T11:50:51;3.78;;;0.75;;
48203;SDS011;33994;50.998;5.864;2022-08-03T11:53:57;3.53;;;0.60;;
48203;SDS011;33994;50.998;5.864;2022-08-03T11:57:03;2.10;;;0.73;;
48203;SDS011;33994;50.998;5.864;2022-08-03T12:00:27;4.40;;;0.57;;
48203;SDS011;33994;50.998;5.864;2022-08-03T12:03:34;2.38;;;0.70;;
48203;SDS011;33994;50.998;5.864;2022-08-03T12:06:38;5.10;;;0.75;;
48203;SDS011;33994;50.998;5.864;2022-08-03T12:09:30;3.38;;;0.70;;
48203;SDS011;33994;50.998;5.864;2022-08-03T12:12:38;1.95;;;0.60;;
48203;SDS011;33994;50.998;5.864;2022-08-03T12:15:49;3.97;;;0.80;;
48203;SDS011;33994;50.998;5.864;2022-08-03T12:22:00;1.60;;;0.60;;
48203;SDS011;33994;50.998;5.864;2022-08-03T12:25:05;5.50;;;1.20;;
48203;SDS011;33994;50.998;5.864;2022-08-03T12:28:19;2.47;;;0.60;;
48203;SDS011;33994;50.998;5.864;2022-08-03T12:31:25;4.45;;;0.65;;
48203;SDS011;33994;50.998;5.864;2022-08-03T12:34:46;4.63;;;0.70;;
48203;SDS011;33994;50.998;5.864;2022-08-03T12:37:51;2.67;;;0.65;;
48203;SDS011;33994;50.998;5.864;2022-08-03T12:40:59;2.83;;;0.70;;
48203;SDS011;33994;50.998;5.864;2022-08-03T12:44:06;3.38;;;0.80;;
48203;SDS011;33994;50.998;5.864;2022-08-03T12:47:11;6.85;;;0.90;;
48203;SDS011;33994;50.998;5.864;2022-08-03T12:53:29;2.83;;;0.70;;
48203;SDS011;33994;50.998;5.864;2022-08-03T12:56:34;2.25;;;0.60;;
48203;SDS011;33994;50.998;5.864;2022-08-03T12:59:42;3.58;;;0.90;;
48203;SDS011;33994;50.998;5.864;2022-08-03T13:02:57;3.17;;;0.77;;
48203;SDS011;33994;50.998;5.864;2022-08-03T13:06:10;2.33;;;0.70;;
48203;SDS011;33994;50.998;5.864;2022-08-03T13:09:16;3.22;;;0.90;;
48203;SDS011;33994;50.998;5.864;2022-08-03T13:12:24;1.60;;;0.60;;
48203;SDS011;33994;50.998;5.864;2022-08-03T13:15:30;2.13;;;0.93;;
48203;SDS011;33994;50.998;5.864;2022-08-03T13:18:35;1.42;;;0.55;;
48203;SDS011;33994;50.998;5.864;2022-08-03T13:21:39;4.30;;;0.50;;
48203;SDS011;33994;50.998;5.864;2022-08-03T13:24:44;3.20;;;0.85;;
48203;SDS011;33994;50.998;5.864;2022-08-03T13:27:49;1.03;;;0.70;;
48203;SDS011;33994;50.998;5.864;2022-08-03T13:30:54;3.17;;;0.52;;
48203;SDS011;33994;50.998;5.864;2022-08-03T13:33:58;3.13;;;1.00;;
48203;SDS011;33994;50.998;5.864;2022-08-03T13:37:03;4.43;;;0.75;;
48203;SDS011;33994;50.998;5.864;2022-08-03T13:40:08;1.50;;;0.65;;
48203;SDS011;33994;50.998;5.864;2022-08-03T13:43:13;1.98;;;0.88;;
48203;SDS011;33994;50.998;5.864;2022-08-03T13:46:17;2.97;;;0.70;;
48203;SDS011;33994;50.998;5.864;2022-08-03T13:49:21;7.10;;;0.90;;
48203;SDS011;33994;50.998;5.864;2022-08-03T13:52:26;3.00;;;0.70;;
48203;SDS011;33994;50.998;5.864;2022-08-03T13:55:31;3.83;;;0.80;;
48203;SDS011;33994;50.998;5.864;2022-08-03T13:58:35;1.83;;;0.50;;
48203;SDS011;33994;50.998;5.864;2022-08-03T14:01:40;3.65;;;0.80;;
48203;SDS011;33994;50.998;5.864;2022-08-03T14:04:44;3.35;;;0.82;;
48203;SDS011;33994;50.998;5.864;2022-08-03T14:07:48;3.63;;;0.70;;
48203;SDS011;33994;50.998;5.864;2022-08-03T14:10:52;3.03;;;0.60;;
48203;SDS011;33994;50.998;5.864;2022-08-03T14:13:57;3.10;;;0.60;;
48203;SDS011;33994;50.998;5.864;2022-08-03T14:17:01;3.55;;;0.70;;
48203;SDS011;33994;50.998;5.864;2022-08-03T14:20:06;1.70;;;0.70;;
48203;SDS011;33994;50.998;5.864;2022-08-03T14:23:11;3.13;;;0.90;;
48203;SDS011;33994;50.998;5.864;2022-08-03T14:26:16;3.22;;;0.93;;
48203;SDS011;33994;50.998;5.864;2022-08-03T14:29:22;3.45;;;0.82;;
48203;SDS011;33994;50.998;5.864;2022-08-03T14:32:26;2.70;;;0.80;;
48203;SDS011;33994;50.998;5.864;2022-08-03T14:35:30;2.53;;;0.70;;
48203;SDS011;33994;50.998;5.864;2022-08-03T14:38:35;4.05;;;0.90;;
48203;SDS011;33994;50.998;5.864;2022-08-03T14:41:38;3.60;;;0.80;;
48203;SDS011;33994;50.998;5.864;2022-08-03T14:44:43;3.85;;;0.75;;
48203;SDS011;33994;50.998;5.864;2022-08-03T14:47:48;2.47;;;1.00;;
48203;SDS011;33994;50.998;5.864;2022-08-03T14:50:52;6.82;;;0.98;;
48203;SDS011;33994;50.998;5.864;2022-08-03T14:53:58;3.95;;;0.63;;
48203;SDS011;33994;50.998;5.864;2022-08-03T14:57:02;2.28;;;1.20;;
48203;SDS011;33994;50.998;5.864;2022-08-03T15:00:06;1.83;;;0.82;;
48203;SDS011;33994;50.998;5.864;2022-08-03T15:03:11;2.95;;;0.85;;
48203;SDS011;33994;50.998;5.864;2022-08-03T15:06:16;1.92;;;0.63;;
48203;SDS011;33994;50.998;5.864;2022-08-03T15:09:20;3.25;;;0.65;;
48203;SDS011;33994;50.998;5.864;2022-08-03T15:12:24;3.90;;;0.70;;
48203;SDS011;33994;50.998;5.864;2022-08-03T15:15:29;3.63;;;0.90;;
48203;SDS011;33994;50.998;5.864;2022-08-03T15:18:33;2.67;;;0.60;;
48203;SDS011;33994;50.998;5.864;2022-08-03T15:21:38;2.05;;;0.82;;
48203;SDS011;33994;50.998;5.864;2022-08-03T15:24:42;2.30;;;0.80;;
48203;SDS011;33994;50.998;5.864;2022-08-03T15:27:47;2.47;;;0.68;;
48203;SDS011;33994;50.998;5.864;2022-08-03T15:30:51;1.75;;;0.90;;
48203;SDS011;33994;50.998;5.864;2022-08-03T15:33:55;0.98;;;0.70;;
48203;SDS011;33994;50.998;5.864;2022-08-03T15:37:00;1.13;;;0.60;;
48203;SDS011;33994;50.998;5.864;2022-08-03T15:40:04;3.03;;;0.85;;
48203;SDS011;33994;50.998;5.864;2022-08-03T15:43:09;1.80;;;0.80;;
48203;SDS011;33994;50.998;5.864;2022-08-03T15:46:14;4.15;;;1.00;;
48203;SDS011;33994;50.998;5.864;2022-08-03T15:49:19;1.20;;;0.60;;
48203;SDS011;33994;50.998;5.864;2022-08-03T15:52:23;1.08;;;0.70;;
48203;SDS011;33994;50.998;5.864;2022-08-03T15:55:28;6.65;;;1.00;;
48203;SDS011;33994;50.998;5.864;2022-08-03T15:58:32;2.47;;;0.70;;
48203;SDS011;33994;50.998;5.864;2022-08-03T16:01:37;0.70;;;0.70;;
48203;SDS011;33994;50.998;5.864;2022-08-03T16:04:42;4.20;;;0.93;;
48203;SDS011;33994;50.998;5.864;2022-08-03T16:07:46;3.05;;;1.10;;
48203;SDS011;33994;50.998;5.864;2022-08-03T16:10:55;5.50;;;1.08;;
48203;SDS011;33994;50.998;5.864;2022-08-03T16:14:00;3.38;;;0.60;;
48203;SDS011;33994;50.998;5.864;2022-08-03T16:17:05;7.90;;;0.90;;
48203;SDS011;33994;50.998;5.864;2022-08-03T16:20:10;4.93;;;0.90;;
48203;SDS011;33994;50.998;5.864;2022-08-03T16:23:15;5.03;;;0.90;;
48203;SDS011;33994;50.998;5.864;2022-08-03T16:26:20;2.67;;;0.70;;
48203;SDS011;33994;50.998;5.864;2022-08-03T16:29:25;4.63;;;0.80;;
48203;SDS011;33994;50.998;5.864;2022-08-03T16:32:29;1.58;;;0.80;;
48203;SDS011;33994;50.998;5.864;2022-08-03T16:35:34;1.95;;;1.00;;
48203;SDS011;33994;50.998;5.864;2022-08-03T16:38:38;2.15;;;0.90;;
48203;SDS011;33994;50.998;5.864;2022-08-03T16:41:43;4.57;;;1.55;;
48203;SDS011;33994;50.998;5.864;2022-08-03T16:44:47;2.42;;;1.30;;
48203;SDS011;33994;50.998;5.864;2022-08-03T16:47:52;2.97;;;0.80;;
48203;SDS011;33994;50.998;5.864;2022-08-03T16:50:56;4.78;;;0.60;;
48203;SDS011;33994;50.998;5.864;2022-08-03T16:54:01;1.77;;;0.80;;
48203;SDS011;33994;50.998;5.864;2022-08-03T17:00:13;2.97;;;0.90;;
48203;SDS011;33994;50.998;5.864;2022-08-03T17:06:24;3.15;;;1.00;;
48203;SDS011;33994;50.998;5.864;2022-08-03T17:09:30;2.28;;;0.82;;
48203;SDS011;33994;50.998;5.864;2022-08-03T17:12:34;4.10;;;0.70;;
48203;SDS011;33994;50.998;5.864;2022-08-03T17:15:42;1.95;;;0.60;;
48203;SDS011;33994;50.998;5.864;2022-08-03T17:18:54;3.88;;;0.70;;
48203;SDS011;33994;50.998;5.864;2022-08-03T17:22:01;1.95;;;0.93;;
48203;SDS011;33994;50.998;5.864;2022-08-03T17:25:11;1.67;;;0.90;;
48203;SDS011;33994;50.998;5.864;2022-08-03T17:28:15;1.85;;;1.00;;
48203;SDS011;33994;50.998;5.864;2022-08-03T17:31:21;2.50;;;1.00;;
48203;SDS011;33994;50.998;5.864;2022-08-03T17:34:26;5.10;;;1.02;;
48203;SDS011;33994;50.998;5.864;2022-08-03T17:37:30;5.63;;;1.00;;
48203;SDS011;33994;50.998;5.864;2022-08-03T17:40:34;5.80;;;1.02;;
48203;SDS011;33994;50.998;5.864;2022-08-03T17:43:39;3.35;;;1.10;;
48203;SDS011;33994;50.998;5.864;2022-08-03T17:46:47;5.22;;;1.00;;
48203;SDS011;33994;50.998;5.864;2022-08-03T17:49:53;1.60;;;1.00;;
48203;SDS011;33994;50.998;5.864;2022-08-03T17:53:08;6.88;;;1.65;;
48203;SDS011;33994;50.998;5.864;2022-08-03T17:57:02;4.40;;;1.20;;
48203;SDS011;33994;50.998;5.864;2022-08-03T18:00:08;3.65;;;1.23;;
48203;SDS011;33994;50.998;5.864;2022-08-03T18:03:36;1.63;;;0.80;;
48203;SDS011;33994;50.998;5.864;2022-08-03T18:06:47;5.50;;;1.48;;
48203;SDS011;33994;50.998;5.864;2022-08-03T18:09:53;1.70;;;1.20;;
48203;SDS011;33994;50.998;5.864;2022-08-03T18:13:02;3.60;;;1.75;;
48203;SDS011;33994;50.998;5.864;2022-08-03T18:16:10;6.68;;;1.25;;
48203;SDS011;33994;50.998;5.864;2022-08-03T18:19:16;2.42;;;0.88;;
48203;SDS011;33994;50.998;5.864;2022-08-03T18:22:22;2.33;;;0.98;;
48203;SDS011;33994;50.998;5.864;2022-08-03T18:25:32;2.72;;;0.80;;
48203;SDS011;33994;50.998;5.864;2022-08-03T18:28:43;2.45;;;0.80;;
48203;SDS011;33994;50.998;5.864;2022-08-03T18:31:48;5.20;;;1.02;;
48203;SDS011;33994;50.998;5.864;2022-08-03T18:35:02;5.50;;;1.10;;
48203;SDS011;33994;50.998;5.864;2022-08-03T18:38:08;5.43;;;1.10;;
48203;SDS011;33994;50.998;5.864;2022-08-03T18:41:17;4.75;;;1.40;;
48203;SDS011;33994;50.998;5.864;2022-08-03T18:44:21;6.15;;;1.20;;
48203;SDS011;33994;50.998;5.864;2022-08-03T18:54:25;2.88;;;1.10;;
48203;SDS011;33994;50.998;5.864;2022-08-03T18:57:49;6.30;;;1.90;;
48203;SDS011;33994;50.998;5.864;2022-08-03T19:04:45;4.70;;;1.35;;
48203;SDS011;33994;50.998;5.864;2022-08-03T19:07:57;4.13;;;1.02;;
48203;SDS011;33994;50.998;5.864;2022-08-03T19:11:06;3.60;;;1.00;;
48203;SDS011;33994;50.998;5.864;2022-08-03T19:14:13;6.15;;;1.20;;
48203;SDS011;33994;50.998;5.864;2022-08-03T19:17:25;2.67;;;1.08;;
48203;SDS011;33994;50.998;5.864;2022-08-03T19:20:33;3.42;;;1.10;;
48203;SDS011;33994;50.998;5.864;2022-08-03T19:23:38;6.38;;;1.10;;